Time;durP1;ratioP1;P1;durP2;ratioP2;P2;SDS_P1;SDS_P2;PMS_P1;PMS_P2;Temp;Humidity;BMP_temperature;BMP_pressure;BME280_temperature;BME280_humidity;BME280_pressure;Samples;Min_cycle;Max_cycle;Signal;HPM_P1;HPM_P2
2023/04/21 00:00:22;;;;;;;10.67;8.27;;;19.60;44.50;;;;;;4943597;29;20467;-81
2023/04/21 00:02:50;;;;;;;12.27;9.20;;;19.60;44.80;;;;;;4945993;29;20530;-80
2023/04/21 00:05:18;;;;;;;13.13;9.00;;;19.60;44.80;;;;;;4953915;29;20539;-81
2023/04/21 00:07:47;;;;;;;15.20;9.47;;;19.50;44.60;;;;;;4951648;29;20462;-80
2023/04/21 00:10:15;;;;;;;14.90;9.67;;;19.50;44.60;;;;;;4956342;28;20477;-80
2023/04/21 00:12:43;;;;;;;12.40;9.57;;;19.50;44.80;;;;;;4951865;29;20486;-81
2023/04/21 00:15:11;;;;;;;15.50;8.87;;;19.50;44.90;;;;;;4944877;29;20516;-80
2023/04/21 00:17:41;;;;;;;21.37;9.97;;;19.50;44.80;;;;;;4950326;29;20455;-82
2023/04/21 00:20:10;;;;;;;13.27;9.20;;;19.50;45.10;;;;;;4944673;29;20475;-81
2023/04/21 00:22:38;;;;;;;11.10;9.13;;;19.50;44.90;;;;;;4943780;29;20463;-80
2023/04/21 00:25:06;;;;;;;13.33;9.13;;;19.40;44.80;;;;;;4951957;29;20459;-81
2023/04/21 00:27:34;;;;;;;13.63;9.30;;;19.40;44.90;;;;;;4945551;29;20451;-82
2023/04/21 00:30:02;;;;;;;14.03;8.87;;;19.40;44.90;;;;;;4950398;29;20458;-82
2023/04/21 00:32:30;;;;;;;12.03;9.20;;;19.40;44.90;;;;;;4946988;29;20532;-83
2023/04/21 00:34:59;;;;;;;12.90;9.00;;;19.40;45.10;;;;;;4945207;29;20472;-81
2023/04/21 00:37:27;;;;;;;11.53;8.70;;;19.40;44.90;;;;;;4947318;28;20456;-81
2023/04/21 00:39:55;;;;;;;12.60;8.93;;;19.30;45.20;;;;;;4956768;29;20491;-81
2023/04/21 00:42:23;;;;;;;11.30;8.57;;;19.30;45.20;;;;;;4951997;29;20444;-82
2023/04/21 00:44:52;;;;;;;13.50;8.67;;;19.30;45.10;;;;;;4948548;29;20436;-81
2023/04/21 00:47:20;;;;;;;14.20;9.50;;;19.30;45.00;;;;;;4945628;29;20468;-80
2023/04/21 00:49:48;;;;;;;12.80;8.70;;;19.30;45.20;;;;;;4944226;28;20503;-81
2023/04/21 00:52:18;;;;;;;12.37;8.50;;;19.30;45.00;;;;;;4943778;29;20475;-82
2023/04/21 00:54:46;;;;;;;11.70;8.33;;;19.20;45.00;;;;;;4941748;29;20462;-81
2023/04/21 00:57:14;;;;;;;10.13;8.43;;;19.30;45.10;;;;;;4944820;29;20458;-80
2023/04/21 00:59:42;;;;;;;12.80;8.80;;;19.20;45.20;;;;;;4952961;29;20448;-81
2023/04/21 01:02:10;;;;;;;14.70;8.37;;;19.20;45.30;;;;;;4946416;29;20440;-82
2023/04/21 01:04:39;;;;;;;11.90;8.60;;;19.20;45.30;;;;;;4948138;29;20455;-81
2023/04/21 01:07:08;;;;;;;11.70;8.30;;;19.20;45.20;;;;;;4955959;29;20452;-82
2023/04/21 01:09:39;;;;;;;13.13;8.20;;;19.20;45.20;;;;;;4954562;29;20463;-81
2023/04/21 01:12:08;;;;;;;9.67;7.83;;;19.20;45.30;;;;;;4949170;29;20475;-80
2023/04/21 01:14:37;;;;;;;9.20;7.40;;;19.20;45.20;;;;;;4947215;29;20459;-81
2023/04/21 01:17:06;;;;;;;11.67;7.70;;;19.20;45.50;;;;;;4953810;29;20475;-81
2023/04/21 01:19:38;;;;;;;11.47;8.00;;;19.10;45.30;;;;;;4948229;28;20464;-81
2023/04/21 01:22:09;;;;;;;11.10;7.87;;;19.10;45.40;;;;;;4958768;29;20456;-80
2023/04/21 01:24:38;;;;;;;11.20;8.13;;;19.20;45.50;;;;;;4955077;29;20531;-81
2023/04/21 01:27:09;;;;;;;9.00;7.30;;;19.20;45.30;;;;;;4947196;29;20478;-80
2023/04/21 01:29:37;;;;;;;11.00;7.30;;;19.20;45.40;;;;;;4945578;29;20484;-81
2023/04/21 01:32:06;;;;;;;13.10;7.87;;;19.10;45.30;;;;;;4955072;29;20473;-81
2023/04/21 01:34:34;;;;;;;9.50;7.30;;;19.10;45.40;;;;;;4957061;29;20488;-80
2023/04/21 01:37:03;;;;;;;10.70;7.20;;;19.10;45.40;;;;;;4954339;29;20479;-81
2023/04/21 01:39:32;;;;;;;8.33;7.03;;;19.10;45.50;;;;;;4957522;29;20918;-82
2023/04/21 01:42:00;;;;;;;12.47;7.23;;;19.00;45.40;;;;;;4959669;29;20443;-80
2023/04/21 01:44:28;;;;;;;8.70;7.20;;;19.00;45.60;;;;;;4952661;29;20458;-81
2023/04/21 01:46:57;;;;;;;11.23;7.10;;;19.00;45.50;;;;;;4962697;29;20475;-79
2023/04/21 01:49:25;;;;;;;8.13;6.83;;;19.00;45.40;;;;;;4949644;29;20448;-81
2023/04/21 01:51:54;;;;;;;10.07;7.23;;;19.00;45.50;;;;;;4949427;29;20458;-82
2023/04/21 01:54:22;;;;;;;10.37;6.93;;;19.00;45.40;;;;;;4959532;29;20455;-83
2023/04/21 01:56:51;;;;;;;12.13;7.30;;;19.00;45.60;;;;;;4952486;28;20455;-82
2023/04/21 01:59:19;;;;;;;9.50;7.13;;;19.00;45.60;;;;;;4950090;29;20440;-81
2023/04/21 02:01:48;;;;;;;9.30;6.90;;;18.90;45.60;;;;;;4946935;29;20468;-80
2023/04/21 02:04:17;;;;;;;10.53;7.07;;;18.90;45.60;;;;;;4949136;29;20475;-81
2023/04/21 02:06:45;;;;;;;7.87;6.87;;;18.90;45.80;;;;;;4940379;29;20543;-82
2023/04/21 02:09:13;;;;;;;9.60;6.90;;;18.90;45.60;;;;;;4946789;29;20460;-81
2023/04/21 02:11:41;;;;;;;6.97;5.80;;;18.90;45.70;;;;;;4947598;29;20472;-82
2023/04/21 02:14:11;;;;;;;9.77;6.20;;;18.90;45.60;;;;;;4954391;29;20502;-80
2023/04/21 02:16:39;;;;;;;7.57;6.30;;;18.90;45.60;;;;;;4947465;29;20455;-80
2023/04/21 02:19:07;;;;;;;7.50;6.67;;;18.80;45.60;;;;;;4955523;29;20471;-82
2023/04/21 02:21:35;;;;;;;8.83;6.30;;;18.80;45.60;;;;;;4947420;29;20471;-81
2023/04/21 02:24:04;;;;;;;8.43;6.87;;;18.80;45.70;;;;;;4945668;29;20455;-83
2023/04/21 02:26:32;;;;;;;6.87;6.17;;;18.80;45.70;;;;;;4951632;29;20466;-79
2023/04/21 02:29:00;;;;;;;8.10;6.20;;;18.80;45.80;;;;;;4951361;29;20450;-81
2023/04/21 02:31:29;;;;;;;6.40;5.80;;;18.80;45.70;;;;;;4955238;29;20470;-81
2023/04/21 02:33:57;;;;;;;11.30;6.30;;;18.80;45.80;;;;;;4946572;29;20479;-80
2023/04/21 02:36:26;;;;;;;9.80;7.20;;;18.80;45.90;;;;;;4955351;28;20451;-80
2023/04/21 02:38:54;;;;;;;10.57;6.20;;;18.80;45.80;;;;;;4937696;29;20475;-80
2023/04/21 02:41:23;;;;;;;7.53;5.70;;;18.80;45.80;;;;;;4938279;29;20455;-80
2023/04/21 02:43:50;;;;;;;8.17;6.40;;;18.80;45.80;;;;;;4939121;29;20447;-82
2023/04/21 02:46:18;;;;;;;7.20;5.77;;;18.70;45.70;;;;;;4948571;29;20439;-80
2023/04/21 02:48:48;;;;;;;7.27;5.90;;;18.70;45.70;;;;;;4941797;29;20436;-79
2023/04/21 02:51:16;;;;;;;8.17;6.50;;;18.70;45.70;;;;;;4943133;29;20478;-80
2023/04/21 02:53:44;;;;;;;6.00;5.43;;;18.70;45.90;;;;;;4934411;29;20467;-79
2023/04/21 02:56:12;;;;;;;7.13;6.13;;;18.70;46.00;;;;;;4957248;29;20503;-80
2023/04/21 02:58:40;;;;;;;15.00;6.40;;;18.70;45.80;;;;;;4958201;29;20549;-80
2023/04/21 03:01:08;;;;;;;6.60;5.80;;;18.70;45.80;;;;;;4943990;28;20480;-81
2023/04/21 03:03:36;;;;;;;9.30;5.60;;;18.70;45.80;;;;;;4940417;29;20455;-80
2023/04/21 03:06:07;;;;;;;6.30;5.67;;;18.70;45.90;;;;;;4940291;29;20839;-82
2023/04/21 03:08:35;;;;;;;6.03;5.43;;;18.70;45.70;;;;;;4940291;29;20491;-80
2023/04/21 03:11:03;;;;;;;8.10;5.60;;;18.70;45.90;;;;;;4940664;29;20478;-80
2023/04/21 03:13:32;;;;;;;6.40;5.50;;;18.60;45.80;;;;;;4940187;29;20486;-80
2023/04/21 03:16:00;;;;;;;9.30;5.63;;;18.60;45.80;;;;;;4943010;29;20464;-80
2023/04/21 03:18:28;;;;;;;6.70;6.10;;;18.60;45.80;;;;;;4942041;29;20452;-79
2023/04/21 03:21:00;;;;;;;7.90;6.20;;;18.60;46.00;;;;;;4945159;29;20489;-80
2023/04/21 03:23:30;;;;;;;6.80;5.83;;;18.60;45.80;;;;;;4940348;29;20472;-81
2023/04/21 03:25:58;;;;;;;10.40;6.30;;;18.50;45.90;;;;;;4949041;29;20451;-81
2023/04/21 03:28:26;;;;;;;7.37;6.00;;;18.50;46.00;;;;;;4942470;29;20546;-80
2023/04/21 03:30:54;;;;;;;6.93;5.60;;;18.50;46.00;;;;;;4949290;29;20482;-81
2023/04/21 03:33:22;;;;;;;5.93;5.33;;;18.50;45.90;;;;;;4947188;29;20547;-81
2023/04/21 03:35:50;;;;;;;7.73;6.10;;;18.50;46.10;;;;;;4948901;29;20435;-82
2023/04/21 03:38:17;;;;;;;7.67;5.90;;;18.50;46.10;;;;;;4946383;29;20442;-80
2023/04/21 03:40:47;;;;;;;6.70;5.63;;;18.50;45.90;;;;;;4922243;29;20472;-80
2023/04/21 03:43:15;;;;;;;6.60;5.47;;;18.50;45.90;;;;;;4938219;29;20451;-80
2023/04/21 03:45:43;;;;;;;7.70;5.47;;;18.50;45.90;;;;;;4943369;29;20452;-81
2023/04/21 03:48:11;;;;;;;7.43;5.70;;;18.50;46.00;;;;;;4943470;29;20452;-80
2023/04/21 03:50:40;;;;;;;6.33;5.73;;;18.50;46.00;;;;;;4944277;29;20499;-80
2023/04/21 03:53:08;;;;;;;6.53;5.77;;;18.50;46.00;;;;;;4944008;29;20448;-80
2023/04/21 03:55:36;;;;;;;7.17;5.87;;;18.50;46.20;;;;;;4942972;29;20494;-80
2023/04/21 03:58:06;;;;;;;8.80;6.40;;;18.50;46.20;;;;;;4945216;29;20452;-81
2023/04/21 04:00:35;;;;;;;6.93;5.43;;;18.50;46.10;;;;;;4942175;29;21044;-79
2023/04/21 04:03:03;;;;;;;5.77;5.10;;;18.50;46.20;;;;;;4942983;29;20520;-81
2023/04/21 04:05:31;;;;;;;6.17;4.90;;;18.50;46.20;;;;;;4943351;29;20826;-80
2023/04/21 04:07:59;;;;;;;5.97;5.40;;;18.40;46.10;;;;;;4948468;29;20476;-80
2023/04/21 04:10:27;;;;;;;7.47;5.63;;;18.40;46.10;;;;;;4947934;28;20536;-80
2023/04/21 04:12:56;;;;;;;8.73;5.17;;;18.40;46.10;;;;;;4946018;29;20503;-81
2023/04/21 04:15:25;;;;;;;6.23;5.30;;;18.40;46.10;;;;;;4952904;29;20472;-81
2023/04/21 04:17:53;;;;;;;8.70;5.50;;;18.40;46.20;;;;;;4946412;29;20455;-79
2023/04/21 04:20:22;;;;;;;5.47;4.97;;;18.40;46.30;;;;;;4942934;29;20868;-81
2023/04/21 04:22:50;;;;;;;9.87;5.70;;;18.40;46.30;;;;;;4942649;29;20475;-81
2023/04/21 04:25:18;;;;;;;6.40;5.13;;;18.40;46.30;;;;;;4948643;29;20447;-80
2023/04/21 04:27:48;;;;;;;6.27;5.47;;;18.40;46.30;;;;;;4947916;29;20436;-80
2023/04/21 04:30:16;;;;;;;9.10;5.60;;;18.40;46.30;;;;;;4938402;29;20462;-80
2023/04/21 04:32:45;;;;;;;7.27;5.40;;;18.40;46.30;;;;;;4937910;29;20443;-79
2023/04/21 04:35:14;;;;;;;7.30;6.00;;;18.40;46.30;;;;;;4940348;29;20539;-78
2023/04/21 04:37:42;;;;;;;6.27;5.37;;;18.40;46.30;;;;;;4947840;29;20476;-79
2023/04/21 04:40:10;;;;;;;7.17;5.50;;;18.40;46.30;;;;;;4939276;29;20463;-82
2023/04/21 04:42:39;;;;;;;7.23;5.60;;;18.40;46.30;;;;;;4942799;29;20463;-78
2023/04/21 04:45:08;;;;;;;6.03;5.43;;;18.40;46.30;;;;;;4940192;29;20452;-81
2023/04/21 04:47:36;;;;;;;5.20;4.70;;;18.40;46.20;;;;;;4940450;29;20456;-80
2023/04/21 04:50:07;;;;;;;14.07;5.97;;;18.40;46.20;;;;;;4942982;29;20474;-79
2023/04/21 04:52:34;;;;;;;5.73;5.13;;;18.40;46.20;;;;;;4950706;29;20452;-79
2023/04/21 04:55:02;;;;;;;6.47;5.43;;;18.40;46.20;;;;;;4942170;29;20495;-82
2023/04/21 04:57:30;;;;;;;5.97;5.27;;;18.40;46.30;;;;;;4942106;29;20459;-78
2023/04/21 04:59:58;;;;;;;6.47;5.50;;;18.40;46.20;;;;;;4946068;29;20546;-79
2023/04/21 05:02:27;;;;;;;5.47;4.93;;;18.40;46.20;;;;;;4944717;29;20447;-80
2023/04/21 05:04:55;;;;;;;6.67;5.23;;;18.40;46.20;;;;;;4945102;29;20474;-81
2023/04/21 05:07:25;;;;;;;7.03;5.80;;;18.40;46.30;;;;;;4945738;29;20486;-80
2023/04/21 05:09:53;;;;;;;5.33;4.83;;;18.40;46.20;;;;;;4942918;28;20486;-79
2023/04/21 05:12:21;;;;;;;6.50;5.20;;;18.40;46.30;;;;;;4939193;29;20446;-79
2023/04/21 05:14:50;;;;;;;6.30;5.00;;;18.40;46.20;;;;;;4939957;29;20502;-79
2023/04/21 05:17:17;;;;;;;5.57;5.03;;;18.40;46.30;;;;;;4936069;29;20479;-78
2023/04/21 05:19:45;;;;;;;6.57;5.93;;;18.40;46.10;;;;;;4945934;29;20472;-82
2023/04/21 05:22:13;;;;;;;6.80;5.30;;;18.40;46.10;;;;;;4938140;29;20462;-79
2023/04/21 05:24:43;;;;;;;5.80;5.27;;;18.40;46.10;;;;;;4937944;29;20442;-79
2023/04/21 05:27:11;;;;;;;4.87;4.47;;;18.40;46.20;;;;;;4941701;29;20454;-80
2023/04/21 05:29:39;;;;;;;5.30;4.70;;;18.40;46.00;;;;;;4943985;29;20471;-81
2023/04/21 05:32:07;;;;;;;5.77;5.17;;;18.50;46.20;;;;;;4953972;29;20553;-81
2023/04/21 05:34:36;;;;;;;6.63;5.37;;;18.50;46.10;;;;;;4950400;29;20477;-80
2023/04/21 05:37:04;;;;;;;5.77;5.17;;;18.50;46.20;;;;;;4943301;29;20490;-80
2023/04/21 05:39:32;;;;;;;6.47;5.23;;;18.50;46.00;;;;;;4944465;29;20527;-80
2023/04/21 05:42:02;;;;;;;5.90;5.30;;;18.50;46.10;;;;;;4946583;29;20511;-83
2023/04/21 05:44:29;;;;;;;7.27;4.97;;;18.50;46.00;;;;;;4945934;28;20444;-79
2023/04/21 05:46:58;;;;;;;6.10;5.57;;;18.50;46.10;;;;;;4946844;29;20945;-80
2023/04/21 05:49:25;;;;;;;5.80;5.23;;;18.50;46.10;;;;;;4947568;28;20511;-79
2023/04/21 05:51:53;;;;;;;4.93;4.50;;;18.50;46.00;;;;;;4941152;29;20455;-79
2023/04/21 05:54:21;;;;;;;6.40;5.37;;;18.60;46.10;;;;;;4940519;29;20486;-79
2023/04/21 05:56:50;;;;;;;5.73;5.13;;;18.60;46.00;;;;;;4941292;29;20456;-80
2023/04/21 05:59:19;;;;;;;7.70;5.27;;;18.60;46.00;;;;;;4940499;29;20451;-79
2023/04/21 06:01:47;;;;;;;5.37;4.87;;;18.60;45.90;;;;;;4946566;29;20474;-79
2023/04/21 06:04:15;;;;;;;6.33;4.63;;;18.60;45.90;;;;;;4948879;29;20442;-80
2023/04/21 06:06:44;;;;;;;7.67;5.47;;;18.60;45.80;;;;;;4947082;29;20474;-80
2023/04/21 06:09:14;;;;;;;6.40;5.10;;;18.70;46.00;;;;;;4941007;29;20444;-80
2023/04/21 06:11:42;;;;;;;5.10;4.60;;;18.70;45.90;;;;;;4940619;29;20491;-80
2023/04/21 06:14:10;;;;;;;5.83;5.23;;;18.70;45.90;;;;;;4940473;29;20466;-80
2023/04/21 06:16:40;;;;;;;7.50;5.03;;;18.80;45.70;;;;;;4945655;29;20482;-79
2023/04/21 06:19:08;;;;;;;5.20;4.70;;;18.80;45.90;;;;;;4947619;28;20495;-80
2023/04/21 06:21:36;;;;;;;6.83;5.10;;;18.80;45.80;;;;;;4943135;29;20460;-83
2023/04/21 06:24:04;;;;;;;5.23;4.83;;;18.90;45.80;;;;;;4946418;29;20440;-80
2023/04/21 06:26:32;;;;;;;5.23;4.73;;;18.90;45.60;;;;;;4941441;29;20522;-82
2023/04/21 06:29:00;;;;;;;6.23;5.07;;;18.90;45.50;;;;;;4948132;28;20458;-80
2023/04/21 06:31:28;;;;;;;6.73;5.20;;;19.00;45.70;;;;;;4950298;29;20487;-80
2023/04/21 06:33:57;;;;;;;5.57;5.07;;;19.00;45.60;;;;;;4949774;29;20482;-81
2023/04/21 06:36:26;;;;;;;5.80;5.20;;;19.00;45.50;;;;;;4941828;29;20479;-80
2023/04/21 06:38:54;;;;;;;5.93;5.07;;;19.10;45.60;;;;;;4939274;29;20440;-80
2023/04/21 06:41:22;;;;;;;7.07;5.20;;;19.10;45.50;;;;;;4937956;29;20460;-78
2023/04/21 06:43:51;;;;;;;5.67;5.03;;;19.10;45.60;;;;;;4932520;29;20515;-80
2023/04/21 06:46:19;;;;;;;5.83;5.27;;;19.20;45.60;;;;;;4939953;29;20531;-81
2023/04/21 06:48:48;;;;;;;7.13;4.80;;;19.20;45.40;;;;;;4945761;29;20531;-82
2023/04/21 06:51:18;;;;;;;7.13;5.30;;;19.20;45.60;;;;;;4937469;29;20502;-83
2023/04/21 06:53:45;;;;;;;8.40;4.33;;;19.30;45.50;;;;;;4937870;29;20443;-80
2023/04/21 06:56:13;;;;;;;10.53;4.70;;;19.30;45.60;;;;;;4945672;29;20474;-83
2023/04/21 06:58:41;;;;;;;5.17;4.67;;;19.40;45.60;;;;;;4938449;28;20933;-83
2023/04/21 07:01:10;;;;;;;14.83;6.57;;;19.50;45.60;;;;;;4939986;29;20471;-78
2023/04/21 07:03:38;;;;;;;16.43;8.20;;;19.50;47.60;;;;;;4934915;29;20479;-81
2023/04/21 07:06:07;;;;;;;16.60;9.23;;;19.40;47.50;;;;;;4935145;29;20470;-80
2023/04/21 07:08:36;;;;;;;18.17;10.10;;;19.30;47.40;;;;;;4935357;29;20460;-79
2023/04/21 07:11:04;;;;;;;18.70;9.90;;;19.10;47.00;;;;;;4934140;29;20558;-80
2023/04/21 07:13:32;;;;;;;16.67;10.10;;;18.80;47.20;;;;;;4934926;29;20452;-78
2023/04/21 07:16:00;;;;;;;22.50;10.60;;;18.70;47.20;;;;;;4934976;29;20472;-79
2023/04/21 07:18:28;;;;;;;15.93;9.50;;;18.80;47.30;;;;;;4935040;29;20454;-78
2023/04/21 07:20:56;;;;;;;22.43;11.67;;;18.80;47.40;;;;;;4935011;29;20476;-78
2023/04/21 07:23:25;;;;;;;22.10;9.67;;;18.60;46.30;;;;;;4934853;29;20462;-77
2023/04/21 07:25:54;;;;;;;17.73;10.30;;;18.50;47.80;;;;;;4942067;29;20528;-78
2023/04/21 07:28:22;;;;;;;14.40;9.10;;;18.60;47.30;;;;;;4934863;29;20444;-78
2023/04/21 07:30:51;;;;;;;21.17;9.90;;;18.90;47.40;;;;;;4933214;29;20472;-78
2023/04/21 07:33:19;;;;;;;15.80;9.23;;;19.20;46.80;;;;;;4934886;29;20466;-78
2023/04/21 07:35:48;;;;;;;18.23;9.93;;;19.30;46.60;;;;;;4930773;29;20467;-78
2023/04/21 07:38:16;;;;;;;20.30;10.87;;;19.10;46.30;;;;;;4929091;29;20543;-78
2023/04/21 07:40:44;;;;;;;18.63;9.77;;;19.30;46.30;;;;;;4931243;29;20475;-78
2023/04/21 07:43:13;;;;;;;20.00;9.53;;;19.40;46.30;;;;;;4934966;29;20491;-81
2023/04/21 07:45:41;;;;;;;20.67;9.13;;;20.00;46.40;;;;;;4935350;29;20444;-81
2023/04/21 07:48:10;;;;;;;15.63;8.33;;;20.40;45.70;;;;;;4936581;29;20448;-82
2023/04/21 07:50:38;;;;;;;17.57;7.87;;;20.70;45.00;;;;;;4934794;29;20487;-82
2023/04/21 07:53:07;;;;;;;11.97;7.73;;;21.00;44.70;;;;;;4930661;29;20456;-82
2023/04/21 07:55:36;;;;;;;18.50;8.70;;;21.30;44.30;;;;;;4930425;29;20480;-81
2023/04/21 07:58:23;;;;;;;12.30;7.20;;;21.50;44.10;;;;;;4927848;29;20452;-81
2023/04/21 08:00:52;;;;;;;12.07;7.27;;;21.70;44.00;;;;;;4934871;29;20562;-82
2023/04/21 08:03:20;;;;;;;11.53;6.40;;;21.90;43.80;;;;;;4936118;29;20448;-84
2023/04/21 08:05:51;;;;;;;12.43;7.20;;;22.10;43.70;;;;;;4931821;29;20452;-81
2023/04/21 08:08:20;;;;;;;18.47;7.83;;;22.30;43.50;;;;;;4936642;29;20448;-82
2023/04/21 08:10:49;;;;;;;8.70;6.80;;;22.50;43.50;;;;;;4939979;29;20513;-81
2023/04/21 08:13:19;;;;;;;11.87;6.57;;;22.70;43.40;;;;;;4937200;29;20487;-81
2023/04/21 08:15:48;;;;;;;11.83;7.17;;;22.80;43.30;;;;;;4937744;29;20468;-80
2023/04/21 08:18:17;;;;;;;11.47;7.13;;;23.00;43.30;;;;;;4940576;29;20523;-80
2023/04/21 08:20:51;;;;;;;11.70;6.90;;;23.20;43.40;;;;;;4938848;29;20539;-82
2023/04/21 08:23:19;;;;;;;11.87;6.80;;;23.40;43.30;;;;;;4934887;29;20526;-83
2023/04/21 08:25:47;;;;;;;10.80;6.80;;;23.50;43.10;;;;;;4939519;29;20452;-81
2023/04/21 08:28:15;;;;;;;9.50;6.57;;;23.70;43.00;;;;;;4934905;29;20539;-81
2023/04/21 08:30:45;;;;;;;12.33;6.73;;;23.90;43.10;;;;;;4935475;29;20478;-81
2023/04/21 08:33:13;;;;;;;11.00;6.50;;;24.00;42.80;;;;;;4930048;29;20472;-80
2023/04/21 08:35:41;;;;;;;9.30;6.23;;;24.20;42.90;;;;;;4933609;29;20447;-80
2023/04/21 08:38:28;;;;;;;14.47;7.20;;;24.40;42.80;;;;;;4925265;29;20531;-80
2023/04/21 08:40:56;;;;;;;10.90;6.07;;;24.60;42.80;;;;;;4934235;29;20483;-81
2023/04/21 08:43:24;;;;;;;11.07;6.53;;;24.80;42.80;;;;;;4932314;29;20548;-81
2023/04/21 08:45:54;;;;;;;13.90;6.57;;;25.00;42.70;;;;;;4935417;29;20939;-81
2023/04/21 08:48:22;;;;;;;9.20;6.60;;;25.10;42.50;;;;;;4940520;29;20479;-80
2023/04/21 08:50:51;;;;;;;9.90;6.10;;;25.30;42.40;;;;;;4941089;29;20460;-84
2023/04/21 08:53:19;;;;;;;12.47;6.60;;;25.40;42.30;;;;;;4938300;29;20434;-80
2023/04/21 08:55:49;;;;;;;7.00;6.30;;;25.70;42.20;;;;;;4936370;29;20511;-80
2023/04/21 08:58:36;;;;;;;6.43;5.67;;;25.80;42.10;;;;;;4934391;29;20535;-80
2023/04/21 09:01:06;;;;;;;7.70;5.43;;;26.00;41.90;;;;;;4935738;29;20476;-80
2023/04/21 09:03:34;;;;;;;12.00;5.97;;;26.30;41.90;;;;;;4934629;29;20414;-81
2023/04/21 09:06:04;;;;;;;7.00;6.30;;;26.40;41.80;;;;;;4935306;29;20463;-80
2023/04/21 09:08:33;;;;;;;7.30;5.63;;;26.50;41.70;;;;;;4934515;29;20491;-79
2023/04/21 09:11:01;;;;;;;7.30;5.80;;;26.70;41.60;;;;;;4942172;29;20470;-80
2023/04/21 09:13:30;;;;;;;6.73;5.40;;;26.90;41.40;;;;;;4933778;29;20630;-81
2023/04/21 09:15:58;;;;;;;6.90;5.60;;;27.10;41.40;;;;;;4933904;29;20436;-83
2023/04/21 09:18:30;;;;;;;7.37;5.73;;;27.20;41.30;;;;;;4934228;29;20443;-80
2023/04/21 09:21:05;;;;;;;7.43;5.43;;;27.40;41.10;;;;;;4930905;29;20438;-82
2023/04/21 09:23:40;;;;;;;5.77;5.23;;;27.60;41.00;;;;;;4937890;29;20425;-80
2023/04/21 09:26:09;;;;;;;8.03;5.90;;;27.80;41.00;;;;;;4935864;29;20451;-80
2023/04/21 09:28:37;;;;;;;8.40;5.90;;;28.00;40.80;;;;;;4934655;29;20454;-82
2023/04/21 09:31:05;;;;;;;8.07;5.40;;;28.20;40.70;;;;;;4939181;29;20563;-81
2023/04/21 09:33:35;;;;;;;6.80;5.73;;;28.30;40.60;;;;;;4935302;29;20430;-81
2023/04/21 09:36:20;;;;;;;9.33;5.70;;;28.50;40.50;;;;;;4940686;29;20442;-80
2023/04/21 09:38:50;;;;;;;7.93;5.20;;;28.70;40.20;;;;;;4938051;29;20456;-80
2023/04/21 09:41:38;;;;;;;6.00;5.40;;;28.90;40.20;;;;;;4947117;29;20453;-80
2023/04/21 09:44:07;;;;;;;6.70;4.97;;;29.10;40.00;;;;;;4938775;29;20444;-80
2023/04/21 09:46:36;;;;;;;6.50;5.07;;;29.30;39.90;;;;;;4937959;29;20422;-80
2023/04/21 09:49:06;;;;;;;5.47;4.97;;;29.50;39.70;;;;;;4940939;29;20437;-80
2023/04/21 09:51:34;;;;;;;6.03;4.97;;;29.70;39.50;;;;;;4937394;29;20450;-81
2023/04/21 09:54:09;;;;;;;5.63;5.00;;;29.80;39.30;;;;;;4941110;29;20458;-81
2023/04/21 09:56:56;;;;;;;5.47;4.93;;;30.10;39.20;;;;;;4934793;29;20446;-81
2023/04/21 09:59:26;;;;;;;5.47;4.97;;;30.30;38.90;;;;;;4944391;29;20435;-80
2023/04/21 10:01:54;;;;;;;5.53;4.70;;;30.50;38.80;;;;;;4937686;29;20424;-79
2023/04/21 10:04:24;;;;;;;8.63;4.50;;;30.20;34.80;;;;;;4939941;29;20426;-79
2023/04/21 10:06:53;;;;;;;5.20;4.80;;;29.70;34.50;;;;;;4942063;29;20448;-78
2023/04/21 10:09:22;;;;;;;5.50;5.00;;;29.40;34.70;;;;;;4942656;29;20447;-79
2023/04/21 10:11:52;;;;;;;8.63;5.00;;;29.20;34.90;;;;;;4938444;29;20532;-77
2023/04/21 10:14:20;;;;;;;7.33;4.73;;;29.00;35.10;;;;;;4938661;29;20531;-78
2023/04/21 10:16:56;;;;;;;5.03;4.53;;;28.90;35.30;;;;;;4934626;29;21027;-79
2023/04/21 10:19:26;;;;;;;7.10;5.13;;;28.90;35.50;;;;;;4934719;29;20459;-79
2023/04/21 10:21:56;;;;;;;5.47;4.50;;;28.80;35.70;;;;;;4931423;29;20458;-78
2023/04/21 10:24:29;;;;;;;5.47;4.97;;;28.70;35.80;;;;;;4937378;29;20418;-78
2023/04/21 10:27:00;;;;;;;5.10;4.60;;;28.80;35.80;;;;;;4935806;29;20946;-78
2023/04/21 10:29:29;;;;;;;7.30;4.90;;;28.80;35.90;;;;;;4936781;29;20458;-76
2023/04/21 10:32:10;;;;;;;5.20;4.70;;;28.80;35.90;;;;;;4940196;29;20425;-79
2023/04/21 10:34:40;;;;;;;4.87;4.47;;;28.80;35.90;;;;;;4936112;29;20434;-79
2023/04/21 10:37:18;;;;;;;5.70;4.40;;;28.80;35.80;;;;;;4932140;29;20448;-76
2023/04/21 10:39:53;;;;;;;5.27;4.80;;;28.90;35.90;;;;;;4936361;29;20460;-77
2023/04/21 10:42:24;;;;;;;4.90;4.57;;;28.90;35.80;;;;;;4936146;29;20439;-78
2023/04/21 10:45:02;;;;;;;5.97;4.80;;;29.00;35.80;;;;;;4935715;29;20440;-78
2023/04/21 10:47:36;;;;;;;12.13;4.87;;;29.00;35.60;;;;;;4934508;29;20456;-77
2023/04/21 10:50:21;;;;;;;4.33;4.03;;;29.10;35.70;;;;;;4939689;29;20446;-78
2023/04/21 10:52:54;;;;;;;4.47;4.07;;;29.20;35.50;;;;;;4930617;29;20503;-78
2023/04/21 10:55:22;;;;;;;5.10;4.70;;;29.20;35.50;;;;;;4935469;29;20539;-78
2023/04/21 10:57:53;;;;;;;4.83;4.33;;;29.30;35.40;;;;;;4935045;29;20500;-78
2023/04/21 11:00:22;;;;;;;4.57;4.17;;;29.40;35.50;;;;;;4937309;29;20467;-77
2023/04/21 11:02:58;;;;;;;4.80;4.40;;;29.40;35.40;;;;;;4938614;29;20945;-79
2023/04/21 11:05:35;;;;;;;4.20;3.90;;;29.50;35.30;;;;;;4939822;29;20447;-78
2023/04/21 11:08:07;;;;;;;5.63;4.50;;;29.60;35.10;;;;;;4934452;29;20453;-78
2023/04/21 11:10:49;;;;;;;5.33;3.90;;;29.60;34.80;;;;;;4946210;29;20471;-77
2023/04/21 11:13:17;;;;;;;5.00;4.37;;;29.70;35.00;;;;;;4940014;29;20455;-77
2023/04/21 11:16:06;;;;;;;4.43;4.03;;;29.70;34.50;;;;;;4945393;29;20466;-77
2023/04/21 11:18:41;;;;;;;4.40;4.00;;;31.10;34.00;;;;;;4934978;29;20450;-78
2023/04/21 11:21:16;;;;;;;4.20;3.90;;;32.30;32.30;;;;;;4934790;29;20538;-79
2023/04/21 11:23:49;;;;;;;4.20;4.00;;;33.50;30.60;;;;;;4935137;29;20411;-78
2023/04/21 11:26:18;;;;;;;4.20;3.90;;;34.50;29.40;;;;;;4937802;29;20984;-78
2023/04/21 11:28:48;;;;;;;3.80;3.50;;;35.40;28.60;;;;;;4935742;29;20443;-79
2023/04/21 11:31:16;;;;;;;3.13;2.93;;;36.10;27.60;;;;;;4936367;29;20988;-79
2023/04/21 11:33:44;;;;;;;3.00;2.90;;;36.80;27.20;;;;;;4934222;29;20470;-80
2023/04/21 11:36:13;;;;;;;3.73;3.23;;;37.40;26.50;;;;;;4940551;29;20455;-79
2023/04/21 11:38:41;;;;;;;3.27;3.07;;;38.00;26.10;;;;;;4936005;29;20571;-79
2023/04/21 11:41:10;;;;;;;5.53;2.83;;;38.50;25.60;;;;;;4941665;29;20479;-79
2023/04/21 11:43:38;;;;;;;2.90;2.77;;;38.60;25.30;;;;;;4938142;29;20451;-79
2023/04/21 11:46:17;;;;;;;2.90;2.80;;;39.00;24.90;;;;;;4934418;29;20441;-80
2023/04/21 11:48:45;;;;;;;2.73;2.60;;;39.40;24.60;;;;;;4934877;29;20522;-79
2023/04/21 11:51:18;;;;;;;2.87;2.77;;;39.90;24.10;;;;;;4937502;29;20474;-79
2023/04/21 11:53:48;;;;;;;2.70;2.60;;;40.20;24.00;;;;;;4933228;29;20494;-79
2023/04/21 11:56:20;;;;;;;2.90;2.80;;;40.50;23.70;;;;;;4942235;29;20827;-77
2023/04/21 11:58:51;;;;;;;9.30;2.90;;;40.50;23.60;;;;;;4949388;28;20460;-82
2023/04/21 12:01:27;;;;;;;4.60;2.63;;;39.90;24.10;;;;;;4933764;28;20518;-81
2023/04/21 12:03:58;;;;;;;6.53;3.23;;;39.80;24.00;;;;;;4935399;29;20451;-83
2023/04/21 12:06:28;;;;;;;6.57;2.67;;;39.00;25.20;;;;;;4934826;29;20452;-82
2023/04/21 12:08:57;;;;;;;3.20;2.90;;;39.40;25.90;;;;;;4928556;29;20444;-81
2023/04/21 12:11:26;;;;;;;3.77;2.90;;;38.90;24.40;;;;;;4934841;29;20487;-81
2023/04/21 12:13:53;;;;;;;4.70;2.93;;;38.70;25.10;;;;;;4929105;29;20446;-81
2023/04/21 12:16:21;;;;;;;2.87;2.67;;;38.80;26.10;;;;;;4932700;29;20448;-81
2023/04/21 12:18:49;;;;;;;8.43;3.27;;;39.00;25.10;;;;;;4930978;29;20476;-81
2023/04/21 12:21:17;;;;;;;7.57;3.03;;;38.10;25.50;;;;;;4932134;29;20474;-78
2023/04/21 12:23:46;;;;;;;6.77;2.87;;;38.70;25.30;;;;;;4937024;29;20444;-81
2023/04/21 12:26:14;;;;;;;6.00;2.73;;;39.30;25.00;;;;;;4939139;29;20491;-79
2023/04/21 12:28:42;;;;;;;3.40;3.10;;;40.10;25.00;;;;;;4938628;28;20465;-79
2023/04/21 12:31:10;;;;;;;3.63;3.20;;;40.90;24.60;;;;;;4939483;29;20475;-79
2023/04/21 12:33:38;;;;;;;5.13;3.40;;;41.40;24.50;;;;;;4944678;29;20477;-81
2023/04/21 12:36:07;;;;;;;9.63;4.30;;;41.90;24.00;;;;;;4936781;29;20451;-80
2023/04/21 12:38:35;;;;;;;5.40;3.63;;;42.10;23.70;;;;;;4943496;29;20502;-81
2023/04/21 12:41:05;;;;;;;10.30;3.47;;;42.40;24.20;;;;;;4938617;29;20471;-81
2023/04/21 12:43:33;;;;;;;7.50;3.70;;;42.60;23.60;;;;;;4932138;29;20459;-80
2023/04/21 12:46:01;;;;;;;11.30;4.00;;;42.90;23.40;;;;;;4944626;29;20455;-80
2023/04/21 12:48:29;;;;;;;5.07;3.90;;;42.70;23.20;;;;;;4948410;29;20475;-81
2023/04/21 12:50:57;;;;;;;17.80;3.90;;;42.80;23.40;;;;;;4934550;29;20553;-81
2023/04/21 12:53:26;;;;;;;11.33;4.10;;;42.80;23.40;;;;;;4933160;29;20507;-81